Time;durP1;ratioP1;P1;durP2;ratioP2;P2;SDS_P1;SDS_P2;PMS_P1;PMS_P2;Temp;Humidity;BMP_temperature;BMP_pressure;BME280_temperature;BME280_humidity;BME280_pressure;Samples;Min_cycle;Max_cycle;Signal;HPM_P1;HPM_P2
2021/04/04 06:01:12;;;;;;;11.68;5.87;;;;;;;3.09;68.30;100736.53;1729606;78;27385;-52
2021/04/04 06:04:10;;;;;;;10.72;5.10;;;;;;;3.12;68.32;100737.38;1769660;80;25253;-50
2021/04/04 06:07:03;;;;;;;11.75;5.75;;;;;;;3.15;68.20;100740.87;1721886;83;25705;-52
2021/04/04 06:09:45;;;;;;;10.63;4.90;;;;;;;3.16;67.96;100733.94;1720637;83;25543;-53
2021/04/04 06:12:35;;;;;;;8.98;4.97;;;;;;;3.21;67.86;100735.87;1720572;83;25322;-53
2021/04/04 06:15:40;;;;;;;12.40;5.85;;;;;;;3.22;67.80;100737.50;1720684;83;25321;-49
2021/04/04 06:18:44;;;;;;;11.80;5.65;;;;;;;3.27;67.79;100742.91;1720711;83;25617;-49
2021/04/04 06:21:21;;;;;;;12.33;6.17;;;;;;;3.26;67.40;100749.84;1720497;83;25784;-52
2021/04/04 06:24:12;;;;;;;10.18;5.50;;;;;;;3.22;67.31;100751.38;1720520;83;25375;-52
2021/04/04 06:27:12;;;;;;;7.20;5.30;;;;;;;3.17;67.30;100755.62;1720681;83;25400;-51
2021/04/04 06:33:25;;;;;;;8.58;5.00;;;;;;;3.24;67.51;100761.32;1889028;76;34569;-52
2021/04/04 06:36:18;;;;;;;9.73;4.62;;;;;;;3.17;67.46;100754.82;1860079;77;25315;-50
2021/04/04 06:39:16;;;;;;;5.15;4.33;;;;;;;3.21;67.49;100752.45;1807752;79;25696;-53
2021/04/04 06:41:54;;;;;;;12.05;6.00;;;;;;;3.26;67.54;100756.53;1808088;79;25643;-53
2021/04/04 06:44:43;;;;;;;9.30;5.62;;;;;;;3.36;67.67;100755.31;1808238;79;25478;-53
2021/04/04 06:47:42;;;;;;;13.18;6.03;;;;;;;3.43;67.51;100754.59;1808427;79;25479;-54
2021/04/04 06:50:20;;;;;;;10.80;6.22;;;;;;;3.55;67.17;100759.27;1849591;76;34939;-50
2021/04/04 06:53:27;;;;;;;19.02;6.08;;;;;;;3.52;67.12;100752.28;1819582;78;25498;-51
2021/04/04 06:56:20;;;;;;;8.88;5.72;;;;;;;3.53;66.96;100754.70;1819496;78;25685;-51
2021/04/04 06:59:07;;;;;;;8.58;5.72;;;;;;;3.56;66.78;100750.73;1819300;78;25815;-53
2021/04/04 07:01:59;;;;;;;8.13;5.78;;;;;;;3.55;66.71;100761.14;1781147;80;25336;-55
2021/04/04 07:04:46;;;;;;;16.93;6.67;;;;;;;3.62;66.96;100759.08;1781322;80;25298;-53
2021/04/04 07:07:42;;;;;;;13.95;6.95;;;;;;;3.72;66.92;100759.73;1781388;80;25364;-51
2021/04/04 07:10:35;;;;;;;11.22;6.40;;;;;;;3.81;66.92;100769.45;1780604;80;25868;-52
2021/04/04 07:13:23;;;;;;;11.03;7.10;;;;;;;3.86;66.54;100766.28;1781173;80;25516;-52
2021/04/04 07:16:23;;;;;;;14.38;7.70;;;;;;;3.94;66.72;100770.39;1780611;80;25579;-51
2021/04/04 07:19:24;;;;;;;21.37;9.03;;;;;;;4.05;66.66;100769.95;1781241;80;25348;-51
2021/04/04 07:22:14;;;;;;;17.32;8.85;;;;;;;4.13;66.11;100771.38;1781211;80;25465;-52
2021/04/04 07:24:53;;;;;;;16.75;8.10;;;;;;;4.28;66.57;100770.96;1780826;80;25708;-54
2021/04/04 07:28:06;;;;;;;12.18;7.12;;;;;;;4.48;66.25;100775.69;1781209;80;25421;-51
2021/04/04 07:30:53;;;;;;;10.78;6.53;;;;;;;4.54;65.52;100774.38;1781328;80;25532;-52
2021/04/04 07:33:53;;;;;;;9.85;6.40;;;;;;;4.63;65.35;100773.66;1781112;80;25288;-53
2021/04/04 07:36:34;;;;;;;12.37;6.75;;;;;;;4.70;65.35;100780.66;1781415;80;25463;-52
2021/04/04 07:39:44;;;;;;;15.88;7.05;;;;;;;4.91;65.05;100785.09;1849584;76;34972;-51
2021/04/04 07:42:20;;;;;;;15.85;7.92;;;;;;;4.93;64.78;100791.53;1819588;78;25521;-53
2021/04/04 07:45:04;;;;;;;13.53;7.17;;;;;;;4.95;64.36;100786.72;1819490;78;25780;-51
2021/04/04 07:48:26;;;;;;;14.55;7.70;;;;;;;4.93;63.94;100793.67;1818787;78;25396;-51
2021/04/04 07:51:19;;;;;;;11.53;8.00;;;;;;;4.94;64.05;100794.47;1819685;78;25479;-52
2021/04/04 07:54:02;;;;;;;12.10;7.03;;;;;;;4.99;63.92;100798.55;1818502;78;25441;-53
2021/04/04 07:56:53;;;;;;;8.73;5.87;;;;;;;5.02;63.69;100799.35;1819618;78;25315;-52
2021/04/04 07:59:40;;;;;;;8.80;6.08;;;;;;;5.00;63.34;100793.45;1819016;78;25809;-54
2021/04/04 08:02:20;;;;;;;9.43;6.47;;;;;;;4.99;63.27;100793.99;1819448;78;25276;-52
2021/04/04 08:04:54;;;;;;;12.98;5.83;;;;;;;4.97;63.21;100793.45;1819572;78;25308;-52
2021/04/04 08:07:32;;;;;;;10.65;6.12;;;;;;;5.01;63.33;100786.48;1819649;78;25370;-53
2021/04/04 08:10:25;;;;;;;9.93;5.67;;;;;;;5.12;63.58;100791.37;1819600;78;25432;-49
2021/04/04 08:13:22;;;;;;;6.78;4.80;;;;;;;5.22;63.33;100790.63;1819507;78;25685;-53
2021/04/04 08:15:59;;;;;;;11.18;4.33;;;;;;;5.30;62.78;100790.67;1819443;78;25752;-51
2021/04/04 08:18:26;;;;;;;8.58;4.45;;;;;;;5.41;62.85;100792.31;1819546;78;25377;-53
2021/04/04 08:20:57;;;;;;;8.83;4.80;;;;;;;5.57;62.84;100792.66;1787814;78;25528;-54
2021/04/04 08:23:41;;;;;;;6.42;4.58;;;;;;;5.79;62.54;100784.95;1819520;78;25518;-55
2021/04/04 08:26:19;;;;;;;9.60;5.28;;;;;;;5.97;62.51;100788.48;1805900;79;25699;-51
2021/04/04 08:29:05;;;;;;;12.10;6.92;;;;;;;6.26;61.77;100781.27;1833735;76;28101;-50
2021/04/04 08:31:47;;;;;;;10.75;6.05;;;;;;;6.38;61.55;100781.55;1819597;78;25496;-54
2021/04/04 08:34:24;;;;;;;8.75;5.12;;;;;;;6.60;61.43;100774.56;1819711;78;25751;-53
2021/04/04 08:37:10;;;;;;;10.60;6.47;;;;;;;6.78;60.50;100774.01;1819621;78;25337;-53
2021/04/04 08:39:37;;;;;;;13.43;6.30;;;;;;;7.20;60.84;100766.63;1819490;78;25466;-54
2021/04/04 08:42:08;;;;;;;8.15;5.15;;;;;;;7.48;59.49;100764.62;1788052;78;25385;-51
2021/04/04 08:45:03;;;;;;;9.45;5.53;;;;;;;7.76;59.30;100766.36;1819706;78;25415;-56
2021/04/04 08:47:34;;;;;;;10.82;5.55;;;;;;;7.97;58.07;100767.06;1819667;78;26926;-51
2021/04/04 08:50:08;;;;;;;10.58;5.42;;;;;;;8.17;57.53;100767.98;1819450;78;25238;-53
2021/04/04 08:52:40;;;;;;;8.88;5.97;;;;;;;8.41;57.51;100762.15;1819659;78;25341;-55
2021/04/04 08:55:08;;;;;;;9.88;6.35;;;;;;;8.87;57.21;100752.85;1819572;78;25441;-53
2021/04/04 08:57:48;;;;;;;10.63;6.42;;;;;;;9.45;57.39;100764.06;1819934;78;25452;-52
2021/04/04 09:00:18;;;;;;;12.10;7.20;;;;;;;10.28;56.08;100760.96;1819613;78;25685;-54
2021/04/04 09:02:56;;;;;;;10.80;6.87;;;;;;;11.15;55.99;100750.51;1819431;78;25449;-54
2021/04/04 09:05:28;;;;;;;9.30;5.55;;;;;;;11.82;54.15;100751.83;1819569;78;25395;-51
2021/04/04 09:08:01;;;;;;;6.85;5.62;;;;;;;11.93;51.12;100750.50;1819629;78;25604;-50
2021/04/04 09:10:32;;;;;;;7.90;5.40;;;;;;;11.99;49.13;100751.99;1819631;78;25426;-51
2021/04/04 09:13:00;;;;;;;6.65;5.12;;;;;;;12.35;48.30;100749.77;1819535;78;26701;-52
2021/04/04 09:15:28;;;;;;;6.03;4.72;;;;;;;12.88;48.77;100744.84;1819550;78;25265;-50
2021/04/04 09:17:57;;;;;;;10.75;5.08;;;;;;;13.75;48.76;100746.20;1819655;78;25325;-53
2021/04/04 09:20:38;;;;;;;6.37;4.25;;;;;;;13.81;46.64;100743.01;1819653;78;25481;-51
2021/04/04 09:23:06;;;;;;;9.35;4.53;;;;;;;13.87;45.95;100744.21;1819603;78;25418;-51
2021/04/04 09:25:37;;;;;;;7.33;4.90;;;;;;;14.47;46.19;100743.34;1819534;78;26638;-52
2021/04/04 09:28:09;;;;;;;6.08;4.17;;;;;;;15.39;45.19;100739.83;1822695;78;25435;-51
2021/04/04 09:30:41;;;;;;;7.28;5.03;;;;;;;16.04;44.35;100739.77;1825928;78;25464;-51
2021/04/04 09:33:17;;;;;;;6.03;4.47;;;;;;;16.63;42.73;100739.24;1825908;78;25292;-53
2021/04/04 09:35:51;;;;;;;5.92;4.92;;;;;;;17.12;41.84;100730.31;1824383;78;25324;-54
2021/04/04 09:38:20;;;;;;;7.62;4.42;;;;;;;17.17;40.07;100729.51;1825474;78;25768;-54
2021/04/04 09:40:47;;;;;;;8.23;4.33;;;;;;;17.12;39.77;100722.91;1825308;78;25330;-54
2021/04/04 09:43:16;;;;;;;5.80;4.00;;;;;;;17.21;38.84;100730.98;1825366;78;25327;-52
2021/04/04 09:45:43;;;;;;;3.87;2.20;;;;;;;16.89;38.40;100728.05;1825429;78;25455;-50
2021/04/04 09:48:25;;;;;;;5.28;2.55;;;;;;;16.77;37.02;100721.16;1825399;78;25264;-51
2021/04/04 09:51:14;;;;;;;4.72;2.20;;;;;;;16.57;36.31;100722.29;1825433;78;26574;-54
2021/04/04 09:53:45;;;;;;;4.00;2.55;;;;;;;16.67;36.38;100723.79;1825325;78;25331;-53
2021/04/04 09:56:30;;;;;;;4.15;2.58;;;;;;;17.46;36.58;100722.76;1825318;78;25511;-51
2021/04/04 09:58:58;;;;;;;4.78;2.95;;;;;;;17.19;35.00;100712.77;1825316;78;25341;-51
2021/04/04 10:01:32;;;;;;;2.80;2.42;;;;;;;16.56;33.88;100714.44;1825307;78;25489;-52
2021/04/04 10:04:06;;;;;;;4.30;3.12;;;;;;;16.15;34.17;100707.40;1825305;78;25694;-51
2021/04/04 10:06:36;;;;;;;5.58;3.90;;;;;;;16.91;34.88;100707.22;1825273;78;25723;-55
2021/04/04 10:09:13;;;;;;;6.37;3.22;;;;;;;17.90;33.35;100706.47;1824659;78;25497;-55
2021/04/04 10:11:39;;;;;;;4.47;2.60;;;;;;;18.67;34.17;100698.48;1825194;78;25462;-54
2021/04/04 10:14:15;;;;;;;4.33;2.20;;;;;;;19.81;33.56;100694.00;1825325;78;25482;-51
2021/04/04 10:16:42;;;;;;;3.35;2.33;;;;;;;20.74;32.22;100683.09;1825278;78;25695;-51
2021/04/04 10:19:17;;;;;;;3.67;2.17;;;;;;;21.37;30.31;100680.28;1825259;78;25477;-54
2021/04/04 10:21:59;;;;;;;5.37;2.30;;;;;;;21.44;29.17;100683.12;1825329;78;25582;-54
2021/04/04 10:24:35;;;;;;;3.90;2.40;;;;;;;21.19;28.71;100675.31;1825335;78;25489;-53
2021/04/04 10:27:27;;;;;;;3.80;2.50;;;;;;;21.94;28.72;100671.92;1825290;78;25257;-52
2021/04/04 10:30:16;;;;;;;3.47;2.00;;;;;;;22.91;29.00;100676.32;1822199;78;25687;-54
2021/04/04 10:32:51;;;;;;;1.80;1.70;;;;;;;23.66;26.40;100671.00;1821962;78;25311;-53
2021/04/04 10:35:32;;;;;;;3.08;1.87;;;;;;;23.65;24.63;100668.84;1822191;78;25537;-51
2021/04/04 10:38:07;;;;;;;3.52;1.82;;;;;;;23.49;25.12;100667.00;1821863;78;25449;-51
2021/04/04 10:40:50;;;;;;;2.58;2.10;;;;;;;23.73;25.05;100661.95;1822245;78;25252;-56
2021/04/04 10:43:41;;;;;;;4.33;2.75;;;;;;;23.37;22.48;100665.37;1849507;76;25153;-51
2021/04/04 10:46:11;;;;;;;3.62;2.45;;;;;;;22.11;22.62;100659.51;1818533;78;25458;-52
2021/04/04 10:48:41;;;;;;;3.08;2.45;;;;;;;20.41;22.45;100650.16;1819686;78;26584;-52
2021/04/04 10:51:12;;;;;;;3.45;2.58;;;;;;;19.50;23.54;100645.53;1819559;78;25436;-54
2021/04/04 10:53:39;;;;;;;4.17;2.50;;;;;;;19.07;24.41;100639.12;1819580;78;25287;-53
2021/04/04 10:56:08;;;;;;;2.75;2.10;;;;;;;17.83;24.40;100649.58;1819554;78;25521;-54
2021/04/04 10:58:36;;;;;;;2.58;1.98;;;;;;;16.70;25.62;100647.19;1819768;78;25537;-51
2021/04/04 11:01:05;;;;;;;2.87;2.17;;;;;;;15.92;26.09;100641.52;1819581;78;25674;-52
2021/04/04 11:03:33;;;;;;;2.40;1.20;;;;;;;15.24;27.16;100634.38;1819581;78;34808;-54
2021/04/04 11:06:01;;;;;;;3.52;1.37;;;;;;;14.88;27.29;100633.56;1788272;78;25470;-52
2021/04/04 11:08:28;;;;;;;2.42;1.80;;;;;;;15.16;26.64;100628.42;1819529;78;25268;-53
2021/04/04 11:10:56;;;;;;;2.70;1.40;;;;;;;14.99;27.79;100620.37;1819602;78;25525;-54
2021/04/04 11:13:23;;;;;;;1.62;1.05;;;;;;;14.88;28.02;100624.03;1819484;78;25896;-51
2021/04/04 11:16:07;;;;;;;2.47;1.20;;;;;;;14.87;27.42;100626.54;1819487;78;25272;-54
2021/04/04 11:18:49;;;;;;;1.77;1.00;;;;;;;14.74;27.60;100618.83;1819694;78;25338;-53
2021/04/04 11:21:39;;;;;;;1.95;1.50;;;;;;;14.39;26.96;100620.34;1849477;76;25150;-53
2021/04/04 11:24:15;;;;;;;2.60;1.47;;;;;;;13.89;27.77;100614.95;1819596;78;25433;-50
2021/04/04 11:26:54;;;;;;;2.25;1.47;;;;;;;13.39;27.19;100612.22;1818264;78;25804;-53
2021/04/04 11:29:25;;;;;;;3.90;1.93;;;;;;;12.78;28.38;100609.41;1819816;78;25518;-54
2021/04/04 11:31:59;;;;;;;2.83;1.90;;;;;;;12.24;29.05;100610.91;1819592;78;25273;-54
2021/04/04 11:34:40;;;;;;;2.15;1.35;;;;;;;11.82;29.64;100598.14;1818280;78;25490;-52
2021/04/04 11:37:19;;;;;;;2.35;1.12;;;;;;;11.58;30.35;100603.31;1819636;78;25518;-52
2021/04/04 11:40:18;;;;;;;2.05;1.10;;;;;;;11.46;30.70;100599.55;1819555;78;25825;-52
2021/04/04 11:42:54;;;;;;;2.42;1.40;;;;;;;11.42;30.98;100591.23;1781242;80;25636;-53
2021/04/04 11:45:38;;;;;;;3.83;1.67;;;;;;;11.36;31.32;100595.19;1768647;80;25685;-52
2021/04/04 11:48:29;;;;;;;2.42;1.62;;;;;;;11.29;30.72;100583.42;1781267;80;25514;-52
2021/04/04 11:51:16;;;;;;;4.85;2.08;;;;;;;11.23;31.14;100583.28;1818147;78;34525;-51
2021/04/04 11:53:49;;;;;;;3.90;2.00;;;;;;;10.90;31.09;100575.92;1789512;80;25285;-52
2021/04/04 11:56:45;;;;;;;3.70;1.75;;;;;;;10.69;31.61;100577.67;1789368;80;26613;-50
2021/04/04 11:59:14;;;;;;;3.08;1.62;;;;;;;10.58;31.80;100567.62;1789203;80;25512;-52
2021/04/04 12:01:43;;;;;;;3.05;1.50;;;;;;;10.60;32.46;100557.30;1757702;81;25454;-51
2021/04/04 12:04:30;;;;;;;2.92;1.90;;;;;;;10.90;32.65;100549.65;1761119;81;25493;-51
2021/04/04 12:07:14;;;;;;;5.22;1.70;;;;;;;11.14;32.57;100551.28;1760020;81;25469;-52
2021/04/04 12:09:45;;;;;;;3.20;1.95;;;;;;;11.28;32.45;100537.69;1788878;80;26680;-52
2021/04/04 12:12:13;;;;;;;2.17;1.70;;;;;;;11.40;32.24;100543.34;1729748;81;25544;-50
2021/04/04 12:14:55;;;;;;;4.60;2.08;;;;;;;11.58;32.35;100536.15;1761000;81;25454;-54
2021/04/04 12:17:27;;;;;;;2.37;1.70;;;;;;;11.71;31.68;100533.09;1760984;81;25315;-54
2021/04/04 12:19:57;;;;;;;2.55;1.65;;;;;;;11.75;31.67;100523.25;1788753;80;25330;-51
2021/04/04 12:22:43;;;;;;;3.20;1.60;;;;;;;11.87;31.60;100516.69;1788657;80;25817;-52
2021/04/04 12:25:21;;;;;;;2.08;1.20;;;;;;;12.31;31.62;100520.39;1788595;80;25534;-50
2021/04/04 12:27:52;;;;;;;2.17;1.35;;;;;;;12.37;30.50;100510.19;1787708;80;25259;-50
2021/04/04 12:30:37;;;;;;;3.20;1.52;;;;;;;11.99;30.06;100522.91;1788602;80;25435;-51
2021/04/04 12:33:20;;;;;;;1.77;1.30;;;;;;;11.69;30.13;100519.06;1757463;81;25517;-52
2021/04/04 12:35:51;;;;;;;2.40;1.40;;;;;;;11.36;31.01;100509.88;1760979;81;26185;-54
2021/04/04 12:38:26;;;;;;;2.22;1.25;;;;;;;11.10;31.32;100507.79;1787279;80;25483;-53
2021/04/04 12:41:02;;;;;;;3.55;2.10;;;;;;;10.93;31.72;100499.51;1788849;80;25497;-53
2021/04/04 12:43:30;;;;;;;5.55;1.60;;;;;;;11.15;32.04;100502.25;1788700;80;25539;-54
2021/04/04 12:45:58;;;;;;;4.03;1.65;;;;;;;11.19;31.85;100495.10;1788763;80;25474;-52
2021/04/04 12:48:25;;;;;;;3.62;1.52;;;;;;;11.08;32.21;100491.03;1757603;81;26577;-54
2021/04/04 12:50:56;;;;;;;3.83;1.70;;;;;;;11.00;32.57;100491.23;1760879;81;25478;-51
2021/04/04 12:53:30;;;;;;;2.20;1.45;;;;;;;11.10;32.98;100488.02;1761020;81;25502;-53
2021/04/04 12:55:58;;;;;;;3.10;1.60;;;;;;;11.35;32.88;100475.77;1788581;80;25528;-52
2021/04/04 12:58:36;;;;;;;3.60;1.80;;;;;;;11.64;31.93;100482.06;1788687;80;25347;-53
2021/04/04 13:01:05;;;;;;;;;;;;;;;11.81;32.06;100477.27;1759864;81;25769;-54
2021/04/04 13:03:36;;;;;;;2.37;1.37;;;;;;;11.74;31.30;100482.35;1787945;80;25328;-54
2021/04/04 13:06:05;;;;;;;3.55;1.72;;;;;;;11.94;32.09;100476.41;1788078;80;25583;-53
2021/04/04 13:08:35;;;;;;;2.50;1.40;;;;;;;12.18;31.70;100470.35;1788037;80;25549;-54
2021/04/04 13:11:10;;;;;;;1.60;1.30;;;;;;;12.23;30.90;100470.99;1788028;80;25412;-55
2021/04/04 13:13:47;;;;;;;3.50;1.70;;;;;;;12.57;31.07;100459.96;1787999;80;25759;-54
2021/04/04 13:16:17;;;;;;;3.10;1.50;;;;;;;12.74;31.04;100452.95;1788038;80;25668;-54
2021/04/04 13:18:54;;;;;;;3.15;1.40;;;;;;;13.13;30.10;100432.95;1756946;81;25278;-49
2021/04/04 13:21:31;;;;;;;2.72;1.60;;;;;;;13.35;27.45;100470.54;1760318;81;25302;-53
2021/04/04 13:24:00;;;;;;;2.98;1.70;;;;;;;13.22;28.44;100432.36;1760394;81;25605;-54
2021/04/04 13:26:31;;;;;;;2.20;1.55;;;;;;;13.28;28.63;100434.36;1760565;81;25938;-52
2021/04/04 13:29:08;;;;;;;2.37;1.40;;;;;;;13.32;26.96;100438.05;1760346;81;25265;-51
2021/04/04 13:31:36;;;;;;;3.08;1.37;;;;;;;13.26;27.38;100435.22;1760433;81;25549;-51
2021/04/04 13:34:12;;;;;;;1.52;1.20;;;;;;;13.47;28.53;100419.61;1760297;81;25541;-52
2021/04/04 13:36:58;;;;;;;2.35;1.50;;;;;;;13.95;28.22;100426.61;1760476;81;25469;-54
2021/04/04 13:39:34;;;;;;;2.30;1.50;;;;;;;13.81;26.59;100426.27;1669633;85;25956;-53
2021/04/04 13:42:03;;;;;;;2.70;1.32;;;;;;;13.29;27.32;100420.21;1721874;83;25775;-50
2021/04/04 13:44:43;;;;;;;1.87;1.25;;;;;;;12.68;26.95;100417.02;1722040;82;25491;-50
2021/04/04 13:47:24;;;;;;;3.77;1.50;;;;;;;12.57;28.97;100415.76;1722089;83;25534;-50
2021/04/04 13:49:51;;;;;;;1.98;1.35;;;;;;;13.18;28.82;100411.62;1721983;83;25643;-54
2021/04/04 13:52:24;;;;;;;2.25;1.40;;;;;;;13.40;28.46;100403.27;1722353;83;25772;-50
2021/04/04 13:54:53;;;;;;;2.12;1.52;;;;;;;13.39;28.49;100396.80;1722388;83;25385;-53
2021/04/04 13:57:38;;;;;;;2.80;1.50;;;;;;;13.35;28.23;100399.37;1722506;83;25687;-52
2021/04/04 14:00:13;;;;;;;3.12;1.27;;;;;;;13.09;27.44;100399.39;1722477;83;25565;-53
2021/04/04 14:02:41;;;;;;;2.00;1.30;;;;;;;12.79;27.59;100389.80;1722397;83;25430;-50
2021/04/04 14:05:27;;;;;;;2.02;1.47;;;;;;;12.52;27.26;100382.80;1722525;83;26579;-52
2021/04/04 14:07:54;;;;;;;2.77;1.50;;;;;;;12.24;27.46;100394.49;1722385;83;25374;-52
2021/04/04 14:10:22;;;;;;;2.08;1.20;;;;;;;11.88;28.38;100386.03;1722394;83;25401;-50
2021/04/04 14:12:48;;;;;;;1.60;1.40;;;;;;;11.69;28.84;100382.23;1722290;83;25567;-54
2021/04/04 14:15:17;;;;;;;2.37;1.57;;;;;;;11.55;28.99;100383.70;1740375;81;25477;-52
2021/04/04 14:17:43;;;;;;;4.40;2.35;;;;;;;11.46;29.44;100382.86;1768849;81;26631;-51
2021/04/04 14:20:12;;;;;;;3.12;1.65;;;;;;;11.36;29.49;100384.73;1768758;81;25341;-55
2021/04/04 14:22:38;;;;;;;2.83;1.60;;;;;;;11.21;28.96;100383.23;1768753;81;25520;-55
2021/04/04 14:25:06;;;;;;;2.95;1.80;;;;;;;10.89;29.22;100382.96;1791085;80;25327;-54
2021/04/04 14:27:33;;;;;;;5.58;3.05;;;;;;;10.80;29.69;100380.77;1791196;80;25469;-54
2021/04/04 14:29:59;;;;;;;3.37;1.80;;;;;;;11.02;30.06;100374.53;1764365;80;25726;-52
2021/04/04 14:32:26;;;;;;;3.55;2.08;;;;;;;11.24;29.53;100379.11;1759724;81;25599;-54
2021/04/04 14:34:56;;;;;;;2.33;1.80;;;;;;;11.32;29.74;100376.19;1768793;81;25469;-53
2021/04/04 14:37:23;;;;;;;3.35;1.60;;;;;;;11.19;29.50;100377.89;1768720;81;25490;-53
2021/04/04 14:39:50;;;;;;;2.92;1.85;;;;;;;11.00;29.18;100372.14;1791105;79;25574;-54
2021/04/04 14:42:17;;;;;;;3.50;1.67;;;;;;;10.78;29.47;100370.81;1791045;80;25708;-54
2021/04/04 14:44:44;;;;;;;4.62;2.10;;;;;;;10.55;29.57;100363.23;1791074;80;25290;-52
2021/04/04 14:47:11;;;;;;;4.42;2.67;;;;;;;10.25;29.48;100357.41;1791022;80;25447;-53
2021/04/04 14:49:37;;;;;;;4.10;2.62;;;;;;;9.97;30.33;100357.45;1759517;81;26364;-51
2021/04/04 14:52:05;;;;;;;2.10;1.90;;;;;;;9.86;30.72;100358.79;1760312;81;25462;-52
2021/04/04 14:54:32;;;;;;;6.20;2.30;;;;;;;9.64;30.72;100351.41;1760264;81;25978;-53
2021/04/04 14:56:59;;;;;;;3.55;1.82;;;;;;;9.49;31.38;100350.59;1760170;81;25490;-51
2021/04/04 14:59:27;;;;;;;3.27;1.87;;;;;;;9.44;31.73;100345.84;1760406;81;25553;-51
2021/04/04 15:01:58;;;;;;;3.55;2.55;;;;;;;9.41;32.01;100343.19;1760205;81;25340;-52
2021/04/04 15:04:22;;;;;;;4.70;2.20;;;;;;;9.38;32.04;100341.64;1759889;81;25490;-50
2021/04/04 15:06:50;;;;;;;2.47;2.08;;;;;;;9.35;32.03;100340.35;1760284;81;25727;-52
2021/04/04 15:09:17;;;;;;;2.47;1.80;;;;;;;9.31;32.07;100338.80;1760325;81;25600;-55
2021/04/04 15:11:44;;;;;;;2.27;1.70;;;;;;;9.26;32.25;100330.80;1760309;81;25480;-53
2021/04/04 15:14:11;;;;;;;2.22;1.80;;;;;;;9.22;32.52;100331.13;1760264;81;25352;-53
2021/04/04 15:16:37;;;;;;;3.00;1.87;;;;;;;9.21;32.68;100321.98;1760411;81;25284;-53
2021/04/04 15:19:04;;;;;;;2.92;1.77;;;;;;;9.19;32.81;100322.83;1760432;81;25710;-51
2021/04/04 15:21:31;;;;;;;6.67;2.47;;;;;;;9.19;32.78;100322.83;1760156;81;25669;-51
2021/04/04 15:23:57;;;;;;;3.92;2.55;;;;;;;9.12;32.95;100325.92;1787953;80;25276;-55
2021/04/04 15:26:24;;;;;;;3.77;2.10;;;;;;;9.08;33.31;100320.88;1787922;80;25509;-55
2021/04/04 15:28:50;;;;;;;3.35;2.00;;;;;;;9.05;33.25;100320.91;1788096;80;25248;-50
2021/04/04 15:31:17;;;;;;;5.60;2.15;;;;;;;9.03;33.42;100323.12;1787997;80;26610;-51
2021/04/04 15:33:43;;;;;;;3.65;2.20;;;;;;;9.04;33.46;100315.81;1787861;80;25441;-54
2021/04/04 15:36:10;;;;;;;3.25;1.95;;;;;;;8.99;33.59;100314.03;1787975;80;25538;-52
2021/04/04 15:38:38;;;;;;;3.42;2.22;;;;;;;8.94;33.66;100312.22;1787948;80;25446;-52
2021/04/04 15:41:06;;;;;;;4.53;2.50;;;;;;;8.91;33.83;100302.57;1757073;81;25522;-55
2021/04/04 15:43:33;;;;;;;6.67;2.80;;;;;;;8.84;33.99;100304.30;1760245;81;26263;-54
2021/04/04 15:45:59;;;;;;;4.80;2.20;;;;;;;8.76;34.24;100306.33;1760210;81;25390;-51
2021/04/04 15:48:26;;;;;;;5.33;2.35;;;;;;;8.72;34.42;100302.08;1760329;81;25458;-55
2021/04/04 15:50:52;;;;;;;7.08;2.67;;;;;;;8.66;34.53;100300.55;1753324;81;25498;-53
2021/04/04 15:53:19;;;;;;;3.08;2.37;;;;;;;8.61;34.81;100293.90;1743163;81;25595;-54
2021/04/04 15:55:46;;;;;;;4.15;2.15;;;;;;;8.55;34.94;100287.80;1732159;82;25737;-55
2021/04/04 15:58:13;;;;;;;4.33;1.70;;;;;;;8.58;35.23;100281.00;1762383;81;25775;-52
2021/04/04 16:00:40;;;;;;;3.85;1.45;;;;;;;8.54;34.83;100286.19;1743224;82;25468;-51
2021/04/04 16:03:06;;;;;;;4.83;2.00;;;;;;;8.48;34.90;100282.52;1743101;82;25574;-52
2021/04/04 16:05:35;;;;;;;3.87;2.47;;;;;;;8.46;35.06;100272.59;1743159;82;25496;-54
2021/04/04 16:08:02;;;;;;;4.75;2.05;;;;;;;8.44;35.02;100279.62;1743219;82;25716;-52
2021/04/04 16:10:36;;;;;;;3.25;1.80;;;;;;;8.37;35.12;100279.17;1743053;82;25662;-50
2021/04/04 16:13:01;;;;;;;3.58;2.25;;;;;;;8.29;35.30;100273.92;1742919;82;25431;-55
2021/04/04 16:15:30;;;;;;;4.10;2.05;;;;;;;8.21;35.47;100278.63;1743148;82;25375;-51
2021/04/04 16:17:58;;;;;;;2.58;1.75;;;;;;;8.10;35.34;100266.39;1743375;82;25463;-52
2021/04/04 16:20:29;;;;;;;3.17;1.92;;;;;;;7.99;35.77;100259.02;1743184;82;25757;-52
2021/04/04 16:22:59;;;;;;;3.10;2.17;;;;;;;7.97;35.96;100259.86;1743149;82;25529;-54
2021/04/04 16:25:27;;;;;;;4.83;2.12;;;;;;;7.92;36.14;100254.55;1742569;82;25520;-50
2021/04/04 16:27:59;;;;;;;4.30;2.40;;;;;;;7.84;36.23;100257.34;1743175;81;25480;-53
2021/04/04 16:30:27;;;;;;;3.77;2.22;;;;;;;7.75;36.27;100249.12;1743322;82;25755;-53
2021/04/04 16:32:57;;;;;;;4.05;2.20;;;;;;;7.67;36.23;100256.49;1743194;81;25727;-52
2021/04/04 16:35:25;;;;;;;5.50;2.62;;;;;;;7.53;36.40;100246.98;1743252;82;25307;-51
2021/04/04 16:37:55;;;;;;;5.70;2.10;;;;;;;7.43;36.52;100242.53;1743498;82;25303;-51
2021/04/04 16:40:28;;;;;;;4.20;2.30;;;;;;;7.34;36.94;100240.23;1743428;82;25350;-54
2021/04/04 16:42:56;;;;;;;4.60;2.77;;;;;;;7.25;37.14;100233.87;1743349;82;25356;-51
2021/04/04 16:45:24;;;;;;;5.97;2.83;;;;;;;7.16;37.21;100232.92;1743294;82;25724;-54
2021/04/04 16:47:52;;;;;;;5.97;2.50;;;;;;;7.08;37.33;100239.72;1743278;82;25516;-52
2021/04/04 16:50:20;;;;;;;7.40;3.60;;;;;;;7.00;37.60;100236.31;1743825;81;25463;-50
2021/04/04 16:52:48;;;;;;;4.95;2.90;;;;;;;6.89;37.77;100238.32;1788050;80;25520;-54
2021/04/04 16:55:16;;;;;;;5.12;2.77;;;;;;;6.84;37.78;100235.69;1788112;80;25467;-54
2021/04/04 16:57:42;;;;;;;7.30;2.95;;;;;;;6.79;38.10;100234.40;1788108;80;25764;-51
2021/04/04 17:00:12;;;;;;;5.75;3.00;;;;;;;6.72;38.13;100230.17;1788088;80;25459;-54
2021/04/04 17:02:41;;;;;;;5.62;3.05;;;;;;;6.66;38.27;100224.58;1757017;81;25254;-51
2021/04/04 17:05:11;;;;;;;4.95;2.62;;;;;;;6.62;38.43;100226.22;1760365;81;25356;-52
2021/04/04 17:07:38;;;;;;;6.75;3.40;;;;;;;6.58;38.37;100223.85;1760433;81;25285;-52
2021/04/04 17:10:09;;;;;;;7.67;4.25;;;;;;;6.54;38.53;100222.27;1760455;81;26640;-53
2021/04/04 17:12:38;;;;;;;8.65;5.15;;;;;;;6.49;38.83;100220.19;1760324;81;25279;-50
2021/04/04 17:15:08;;;;;;;5.10;3.50;;;;;;;6.31;38.95;100219.78;1760699;81;25476;-50
2021/04/04 17:17:36;;;;;;;6.47;3.27;;;;;;;6.31;38.95;100219.78;1760428;81;25498;-52
2021/04/04 17:20:05;;;;;;;6.50;3.20;;;;;;;6.24;39.26;100222.00;1760475;81;25477;-52
2021/04/04 17:22:32;;;;;;;5.58;3.05;;;;;;;6.16;39.32;100218.57;1760513;81;25865;-53
2021/04/04 17:24:59;;;;;;;6.67;3.17;;;;;;;6.11;39.37;100218.61;1787958;80;25522;-51
2021/04/04 17:27:25;;;;;;;5.80;3.50;;;;;;;6.04;39.43;100218.13;1788088;80;25470;-51
2021/04/04 17:29:52;;;;;;;5.10;3.30;;;;;;;5.98;39.51;100214.14;1788090;80;25347;-53
2021/04/04 17:32:20;;;;;;;5.28;3.35;;;;;;;5.95;39.82;100205.82;1787948;80;25255;-54
2021/04/04 17:34:48;;;;;;;6.80;3.40;;;;;;;5.90;39.83;100209.89;1788114;80;25709;-55
2021/04/04 17:37:21;;;;;;;7.22;3.15;;;;;;;5.87;39.96;100210.44;1756865;81;25317;-51
2021/04/04 17:39:48;;;;;;;6.50;3.50;;;;;;;5.79;40.17;100202.45;1760430;81;25282;-53
2021/04/04 17:42:15;;;;;;;12.63;6.22;;;;;;;5.74;40.29;100202.48;1760341;81;25472;-55
2021/04/04 17:44:42;;;;;;;8.08;4.85;;;;;;;5.71;40.36;100203.03;1760426;81;25478;-52
2021/04/04 17:47:08;;;;;;;10.93;4.87;;;;;;;5.65;40.22;100192.06;1760379;81;25808;-54
2021/04/04 17:49:35;;;;;;;6.28;4.30;;;;;;;5.59;40.61;100195.33;1760328;81;25277;-55
2021/04/04 17:52:04;;;;;;;10.80;5.10;;;;;;;5.53;40.70;100191.85;1732607;81;25577;-54
2021/04/04 17:54:31;;;;;;;11.10;6.07;;;;;;;5.46;41.06;100193.25;1760594;81;25289;-53
2021/04/04 17:56:58;;;;;;;13.22;8.08;;;;;;;5.38;41.27;100187.91;1760394;81;25333;-53
2021/04/04 17:59:24;;;;;;;14.28;8.78;;;;;;;5.30;41.54;100186.63;1760456;81;26330;-56
2021/04/04 18:01:51;;;;;;;18.70;10.38;;;;;;;5.22;41.68;100182.63;1760190;81;25348;-54
2021/04/04 18:04:20;;;;;;;14.83;8.78;;;;;;;5.15;41.80;100188.84;1760369;81;25424;-50
2021/04/04 18:06:55;;;;;;;16.37;9.25;;;;;;;5.05;42.13;100180.29;1760376;81;25499;-52
2021/04/04 18:12:03;;;;;;;13.93;6.92;;;;;;;4.91;42.66;100184.65;1787897;80;25707;-51